sensor_id;sensor_type;location;lat;lon;timestamp;pressure;altitude;pressure_sealevel;temperature
13570;BMP180;6856;51.460;7.158;2023-11-21T00:01:30;99841.00;;;12.30
13570;BMP180;6856;51.460;7.158;2023-11-21T00:04:05;99850.00;;;12.30
13570;BMP180;6856;51.460;7.158;2023-11-21T00:06:39;99844.00;;;12.30
13570;BMP180;6856;51.460;7.158;2023-11-21T00:09:13;99847.00;;;12.30
13570;BMP180;6856;51.460;7.158;2023-11-21T00:11:48;99850.00;;;12.30
13570;BMP180;6856;51.460;7.158;2023-11-21T00:14:21;99842.00;;;12.30
13570;BMP180;6856;51.460;7.158;2023-11-21T00:16:57;99845.00;;;12.30
13570;BMP180;6856;51.460;7.158;2023-11-21T00:19:32;99820.00;;;12.30
13570;BMP180;6856;51.460;7.158;2023-11-21T00:22:07;99837.00;;;12.30
13570;BMP180;6856;51.460;7.158;2023-11-21T00:24:41;99854.00;;;12.30
13570;BMP180;6856;51.460;7.158;2023-11-21T00:27:15;99850.00;;;12.20
13570;BMP180;6856;51.460;7.158;2023-11-21T00:29:48;99856.00;;;12.20
13570;BMP180;6856;51.460;7.158;2023-11-21T00:32:24;99857.00;;;12.20
13570;BMP180;6856;51.460;7.158;2023-11-21T00:35:00;99867.00;;;12.20
13570;BMP180;6856;51.460;7.158;2023-11-21T00:37:33;99858.00;;;12.20
13570;BMP180;6856;51.460;7.158;2023-11-21T00:40:09;99865.00;;;12.20
13570;BMP180;6856;51.460;7.158;2023-11-21T00:42:43;99858.00;;;12.20
13570;BMP180;6856;51.460;7.158;2023-11-21T00:45:16;99862.00;;;12.20
13570;BMP180;6856;51.460;7.158;2023-11-21T00:47:51;99826.00;;;12.20
13570;BMP180;6856;51.460;7.158;2023-11-21T00:50:25;99865.00;;;12.20
13570;BMP180;6856;51.460;7.158;2023-11-21T00:52:59;99869.00;;;12.20
13570;BMP180;6856;51.460;7.158;2023-11-21T00:55:34;99863.00;;;12.20
13570;BMP180;6856;51.460;7.158;2023-11-21T00:58:08;99864.00;;;12.20
13570;BMP180;6856;51.460;7.158;2023-11-21T01:00:42;99862.00;;;12.20
13570;BMP180;6856;51.460;7.158;2023-11-21T01:03:19;99863.00;;;12.20
13570;BMP180;6856;51.460;7.158;2023-11-21T01:05:53;99856.00;;;12.20
13570;BMP180;6856;51.460;7.158;2023-11-21T01:08:26;99860.00;;;12.20
13570;BMP180;6856;51.460;7.158;2023-11-21T01:11:01;99870.00;;;12.20
13570;BMP180;6856;51.460;7.158;2023-11-21T01:13:34;99842.00;;;12.20
13570;BMP180;6856;51.460;7.158;2023-11-21T01:16:10;99875.00;;;12.20
13570;BMP180;6856;51.460;7.158;2023-11-21T01:18:46;99862.00;;;12.20
13570;BMP180;6856;51.460;7.158;2023-11-21T01:21:20;99873.00;;;12.20
13570;BMP180;6856;51.460;7.158;2023-11-21T01:23:55;99875.00;;;12.20
13570;BMP180;6856;51.460;7.158;2023-11-21T01:26:29;99881.00;;;12.20
13570;BMP180;6856;51.460;7.158;2023-11-21T01:29:02;99887.00;;;12.20
13570;BMP180;6856;51.460;7.158;2023-11-21T01:31:37;99888.00;;;12.20
13570;BMP180;6856;51.460;7.158;2023-11-21T01:34:12;99882.00;;;12.20
13570;BMP180;6856;51.460;7.158;2023-11-21T01:36:49;99889.00;;;12.20
13570;BMP180;6856;51.460;7.158;2023-11-21T01:39:22;99887.00;;;12.20
13570;BMP180;6856;51.460;7.158;2023-11-21T01:41:57;99891.00;;;12.20
13570;BMP180;6856;51.460;7.158;2023-11-21T01:44:33;99877.00;;;12.20
13570;BMP180;6856;51.460;7.158;2023-11-21T01:47:08;99889.00;;;12.20
13570;BMP180;6856;51.460;7.158;2023-11-21T01:49:46;99886.00;;;12.20
13570;BMP180;6856;51.460;7.158;2023-11-21T01:52:20;99901.00;;;12.20
13570;BMP180;6856;51.460;7.158;2023-11-21T01:54:55;99890.00;;;12.20
13570;BMP180;6856;51.460;7.158;2023-11-21T01:57:29;99891.00;;;12.20
13570;BMP180;6856;51.460;7.158;2023-11-21T02:00:04;99889.00;;;12.20
13570;BMP180;6856;51.460;7.158;2023-11-21T02:02:48;99889.00;;;12.20
13570;BMP180;6856;51.460;7.158;2023-11-21T02:05:24;99902.00;;;12.30
13570;BMP180;6856;51.460;7.158;2023-11-21T02:07:58;99898.00;;;12.30
13570;BMP180;6856;51.460;7.158;2023-11-21T02:10:33;99901.00;;;12.30
13570;BMP180;6856;51.460;7.158;2023-11-21T02:13:09;99897.00;;;12.30
13570;BMP180;6856;51.460;7.158;2023-11-21T02:15:43;99911.00;;;12.10
13570;BMP180;6856;51.460;7.158;2023-11-21T02:18:18;99921.00;;;12.30
13570;BMP180;6856;51.460;7.158;2023-11-21T02:20:53;99912.00;;;12.30
13570;BMP180;6856;51.460;7.158;2023-11-21T02:23:28;99908.00;;;12.30
13570;BMP180;6856;51.460;7.158;2023-11-21T02:26:02;99918.00;;;12.30
13570;BMP180;6856;51.460;7.158;2023-11-21T02:28:36;99914.00;;;12.30
13570;BMP180;6856;51.460;7.158;2023-11-21T02:31:11;99916.00;;;12.30
13570;BMP180;6856;51.460;7.158;2023-11-21T02:33:45;99923.00;;;12.30
13570;BMP180;6856;51.460;7.158;2023-11-21T02:36:19;99914.00;;;12.30
13570;BMP180;6856;51.460;7.158;2023-11-21T02:38:55;99920.00;;;12.30
13570;BMP180;6856;51.460;7.158;2023-11-21T02:41:29;99919.00;;;12.30
13570;BMP180;6856;51.460;7.158;2023-11-21T02:44:04;99923.00;;;12.30
13570;BMP180;6856;51.460;7.158;2023-11-21T02:46:38;99928.00;;;12.30
13570;BMP180;6856;51.460;7.158;2023-11-21T02:49:13;99905.00;;;12.30
13570;BMP180;6856;51.460;7.158;2023-11-21T02:51:46;99933.00;;;12.30
13570;BMP180;6856;51.460;7.158;2023-11-21T02:54:22;99935.00;;;12.30
13570;BMP180;6856;51.460;7.158;2023-11-21T02:56:56;99936.00;;;12.30
13570;BMP180;6856;51.460;7.158;2023-11-21T02:59:31;99942.00;;;12.30
13570;BMP180;6856;51.460;7.158;2023-11-21T03:02:04;99950.00;;;12.30
13570;BMP180;6856;51.460;7.158;2023-11-21T03:04:40;99947.00;;;12.30
13570;BMP180;6856;51.460;7.158;2023-11-21T03:07:14;99946.00;;;12.30
13570;BMP180;6856;51.460;7.158;2023-11-21T03:09:50;99947.00;;;12.30
13570;BMP180;6856;51.460;7.158;2023-11-21T03:12:23;99949.00;;;12.30
13570;BMP180;6856;51.460;7.158;2023-11-21T03:14:59;99952.00;;;12.30
13570;BMP180;6856;51.460;7.158;2023-11-21T03:17:34;99946.00;;;12.30
13570;BMP180;6856;51.460;7.158;2023-11-21T03:20:10;99947.00;;;12.30
13570;BMP180;6856;51.460;7.158;2023-11-21T03:22:44;99951.00;;;12.30
13570;BMP180;6856;51.460;7.158;2023-11-21T03:25:19;99942.00;;;12.30
13570;BMP180;6856;51.460;7.158;2023-11-21T03:27:52;99941.00;;;12.30
13570;BMP180;6856;51.460;7.158;2023-11-21T03:30:26;99946.00;;;12.30
13570;BMP180;6856;51.460;7.158;2023-11-21T03:33:00;99950.00;;;12.30
13570;BMP180;6856;51.460;7.158;2023-11-21T03:35:34;99966.00;;;12.30
13570;BMP180;6856;51.460;7.158;2023-11-21T03:38:10;99960.00;;;12.30
13570;BMP180;6856;51.460;7.158;2023-11-21T03:40:46;99964.00;;;12.30
13570;BMP180;6856;51.460;7.158;2023-11-21T03:43:21;99972.00;;;12.30
13570;BMP180;6856;51.460;7.158;2023-11-21T03:45:57;99974.00;;;12.30
13570;BMP180;6856;51.460;7.158;2023-11-21T03:48:30;99986.00;;;12.30
13570;BMP180;6856;51.460;7.158;2023-11-21T03:51:06;99987.00;;;12.30
13570;BMP180;6856;51.460;7.158;2023-11-21T03:53:39;99977.00;;;12.30
13570;BMP180;6856;51.460;7.158;2023-11-21T03:56:15;99992.00;;;12.30
13570;BMP180;6856;51.460;7.158;2023-11-21T03:58:51;99996.00;;;12.30
13570;BMP180;6856;51.460;7.158;2023-11-21T04:01:25;99949.00;;;12.30
13570;BMP180;6856;51.460;7.158;2023-11-21T04:03:58;99998.00;;;12.30
13570;BMP180;6856;51.460;7.158;2023-11-21T04:06:33;100001.00;;;12.30
13570;BMP180;6856;51.460;7.158;2023-11-21T04:09:08;100002.00;;;12.30
13570;BMP180;6856;51.460;7.158;2023-11-21T04:11:43;100008.00;;;12.30
13570;BMP180;6856;51.460;7.158;2023-11-21T04:14:17;100003.00;;;12.30
13570;BMP180;6856;51.460;7.158;2023-11-21T04:16:52;99999.00;;;12.30
13570;BMP180;6856;51.460;7.158;2023-11-21T04:19:26;99984.00;;;12.30
13570;BMP180;6856;51.460;7.158;2023-11-21T04:22:00;99996.00;;;12.30
13570;BMP180;6856;51.460;7.158;2023-11-21T04:24:34;100002.00;;;12.30
13570;BMP180;6856;51.460;7.158;2023-11-21T04:27:09;100001.00;;;12.30
13570;BMP180;6856;51.460;7.158;2023-11-21T04:29:43;100005.00;;;12.30
13570;BMP180;6856;51.460;7.158;2023-11-21T04:32:17;100009.00;;;12.30
13570;BMP180;6856;51.460;7.158;2023-11-21T04:34:50;100010.00;;;12.30
13570;BMP180;6856;51.460;7.158;2023-11-21T04:37:24;100007.00;;;12.30
13570;BMP180;6856;51.460;7.158;2023-11-21T04:39:58;100005.00;;;12.30
13570;BMP180;6856;51.460;7.158;2023-11-21T04:42:34;100013.00;;;12.30
13570;BMP180;6856;51.460;7.158;2023-11-21T04:45:09;100016.00;;;12.30
13570;BMP180;6856;51.460;7.158;2023-11-21T04:47:45;100009.00;;;12.30
13570;BMP180;6856;51.460;7.158;2023-11-21T04:50:18;100019.00;;;12.30
13570;BMP180;6856;51.460;7.158;2023-11-21T04:52:52;100016.00;;;12.30
13570;BMP180;6856;51.460;7.158;2023-11-21T04:55:26;100020.00;;;12.30
13570;BMP180;6856;51.460;7.158;2023-11-21T04:58:04;100022.00;;;12.30
13570;BMP180;6856;51.460;7.158;2023-11-21T05:00:38;100021.00;;;12.30
13570;BMP180;6856;51.460;7.158;2023-11-21T05:03:12;100027.00;;;12.30
13570;BMP180;6856;51.460;7.158;2023-11-21T05:05:46;100025.00;;;12.30
13570;BMP180;6856;51.460;7.158;2023-11-21T05:08:20;100014.00;;;12.10
13570;BMP180;6856;51.460;7.158;2023-11-21T05:10:54;100036.00;;;12.30
13570;BMP180;6856;51.460;7.158;2023-11-21T05:13:31;100038.00;;;12.30
13570;BMP180;6856;51.460;7.158;2023-11-21T05:16:08;100037.00;;;12.30
13570;BMP180;6856;51.460;7.158;2023-11-21T05:18:41;100037.00;;;12.30
13570;BMP180;6856;51.460;7.158;2023-11-21T05:21:17;100034.00;;;12.30
13570;BMP180;6856;51.460;7.158;2023-11-21T05:23:53;100037.00;;;12.30
13570;BMP180;6856;51.460;7.158;2023-11-21T05:26:29;100044.00;;;12.30
13570;BMP180;6856;51.460;7.158;2023-11-21T05:29:04;100044.00;;;12.30
13570;BMP180;6856;51.460;7.158;2023-11-21T05:31:39;100056.00;;;12.30
13570;BMP180;6856;51.460;7.158;2023-11-21T05:34:13;100060.00;;;12.30
13570;BMP180;6856;51.460;7.158;2023-11-21T05:36:50;100065.00;;;12.30
13570;BMP180;6856;51.460;7.158;2023-11-21T05:39:24;100054.00;;;12.30
13570;BMP180;6856;51.460;7.158;2023-11-21T05:41:57;100068.00;;;12.30
13570;BMP180;6856;51.460;7.158;2023-11-21T05:44:33;100079.00;;;12.30
13570;BMP180;6856;51.460;7.158;2023-11-21T05:47:08;100075.00;;;12.30
13570;BMP180;6856;51.460;7.158;2023-11-21T05:49:42;100080.00;;;12.30
13570;BMP180;6856;51.460;7.158;2023-11-21T05:52:17;100080.00;;;12.30
13570;BMP180;6856;51.460;7.158;2023-11-21T05:54:51;100054.00;;;12.30
13570;BMP180;6856;51.460;7.158;2023-11-21T05:57:25;100097.00;;;12.30
13570;BMP180;6856;51.460;7.158;2023-11-21T06:00:00;100096.00;;;12.30
13570;BMP180;6856;51.460;7.158;2023-11-21T06:02:42;100101.00;;;12.30
13570;BMP180;6856;51.460;7.158;2023-11-21T06:05:18;100091.00;;;12.30
13570;BMP180;6856;51.460;7.158;2023-11-21T06:07:54;100082.00;;;12.30
13570;BMP180;6856;51.460;7.158;2023-11-21T06:10:28;100112.00;;;12.30
13570;BMP180;6856;51.460;7.158;2023-11-21T06:13:02;100118.00;;;12.30
13570;BMP180;6856;51.460;7.158;2023-11-21T06:15:38;100121.00;;;12.30
13570;BMP180;6856;51.460;7.158;2023-11-21T06:18:12;100119.00;;;12.30
13570;BMP180;6856;51.460;7.158;2023-11-21T06:20:47;100130.00;;;12.30
13570;BMP180;6856;51.460;7.158;2023-11-21T06:23:21;100134.00;;;12.30
13570;BMP180;6856;51.460;7.158;2023-11-21T06:25:54;100137.00;;;12.30
13570;BMP180;6856;51.460;7.158;2023-11-21T06:28:29;100147.00;;;12.30
13570;BMP180;6856;51.460;7.158;2023-11-21T06:31:05;100150.00;;;12.20
13570;BMP180;6856;51.460;7.158;2023-11-21T06:33:39;100153.00;;;12.20
13570;BMP180;6856;51.460;7.158;2023-11-21T06:36:13;100151.00;;;12.30
13570;BMP180;6856;51.460;7.158;2023-11-21T06:38:47;100149.00;;;12.20
13570;BMP180;6856;51.460;7.158;2023-11-21T06:41:21;100151.00;;;12.20
13570;BMP180;6856;51.460;7.158;2023-11-21T06:43:56;100162.00;;;12.30
13570;BMP180;6856;51.460;7.158;2023-11-21T06:46:32;100133.00;;;12.20
13570;BMP180;6856;51.460;7.158;2023-11-21T06:49:06;100158.00;;;12.20
13570;BMP180;6856;51.460;7.158;2023-11-21T06:51:40;100160.00;;;12.30
13570;BMP180;6856;51.460;7.158;2023-11-21T06:54:13;100167.00;;;12.20
13570;BMP180;6856;51.460;7.158;2023-11-21T06:56:47;100159.00;;;12.20
13570;BMP180;6856;51.460;7.158;2023-11-21T06:59:21;100175.00;;;12.20
13570;BMP180;6856;51.460;7.158;2023-11-21T07:01:57;100181.00;;;12.30
13570;BMP180;6856;51.460;7.158;2023-11-21T07:04:31;100183.00;;;12.30
13570;BMP180;6856;51.460;7.158;2023-11-21T07:07:06;100179.00;;;12.30
13570;BMP180;6856;51.460;7.158;2023-11-21T07:09:42;100188.00;;;12.30
13570;BMP180;6856;51.460;7.158;2023-11-21T07:12:15;100192.00;;;12.30
13570;BMP180;6856;51.460;7.158;2023-11-21T07:14:49;100196.00;;;12.30
13570;BMP180;6856;51.460;7.158;2023-11-21T07:17:27;100193.00;;;12.30
13570;BMP180;6856;51.460;7.158;2023-11-21T07:20:00;100204.00;;;12.30
13570;BMP180;6856;51.460;7.158;2023-11-21T07:22:39;100209.00;;;12.30
13570;BMP180;6856;51.460;7.158;2023-11-21T07:25:12;100205.00;;;12.30
13570;BMP180;6856;51.460;7.158;2023-11-21T07:27:48;100205.00;;;12.30
13570;BMP180;6856;51.460;7.158;2023-11-21T07:30:22;100215.00;;;12.30
13570;BMP180;6856;51.460;7.158;2023-11-21T07:32:58;100213.00;;;12.30
13570;BMP180;6856;51.460;7.158;2023-11-21T07:35:32;100221.00;;;12.40
13570;BMP180;6856;51.460;7.158;2023-11-21T07:38:06;100212.00;;;12.40
13570;BMP180;6856;51.460;7.158;2023-11-21T07:40:40;100218.00;;;12.40
13570;BMP180;6856;51.460;7.158;2023-11-21T07:43:15;100216.00;;;12.40
13570;BMP180;6856;51.460;7.158;2023-11-21T07:45:49;100218.00;;;12.40
13570;BMP180;6856;51.460;7.158;2023-11-21T07:48:24;100216.00;;;12.40
13570;BMP180;6856;51.460;7.158;2023-11-21T07:50:58;100198.00;;;12.40
13570;BMP180;6856;51.460;7.158;2023-11-21T07:53:32;100218.00;;;12.40
13570;BMP180;6856;51.460;7.158;2023-11-21T07:56:08;100214.00;;;12.40
13570;BMP180;6856;51.460;7.158;2023-11-21T07:58:43;100213.00;;;12.40
13570;BMP180;6856;51.460;7.158;2023-11-21T08:01:17;100221.00;;;12.40
13570;BMP180;6856;51.460;7.158;2023-11-21T08:03:52;100218.00;;;12.40
13570;BMP180;6856;51.460;7.158;2023-11-21T08:06:29;100244.00;;;12.40
13570;BMP180;6856;51.460;7.158;2023-11-21T08:09:03;100244.00;;;12.40
13570;BMP180;6856;51.460;7.158;2023-11-21T08:11:36;100255.00;;;12.50
13570;BMP180;6856;51.460;7.158;2023-11-21T08:14:11;100271.00;;;12.50
13570;BMP180;6856;51.460;7.158;2023-11-21T08:16:45;100272.00;;;12.50
13570;BMP180;6856;51.460;7.158;2023-11-21T08:19:21;100284.00;;;12.50
13570;BMP180;6856;51.460;7.158;2023-11-21T08:22:01;100285.00;;;12.50
13570;BMP180;6856;51.460;7.158;2023-11-21T08:24:37;100293.00;;;12.50
13570;BMP180;6856;51.460;7.158;2023-11-21T08:27:11;100290.00;;;12.50
13570;BMP180;6856;51.460;7.158;2023-11-21T08:29:48;100306.00;;;12.50
13570;BMP180;6856;51.460;7.158;2023-11-21T08:32:23;100309.00;;;12.50
13570;BMP180;6856;51.460;7.158;2023-11-21T08:34:58;100313.00;;;12.50
13570;BMP180;6856;51.460;7.158;2023-11-21T08:37:31;100317.00;;;12.50
13570;BMP180;6856;51.460;7.158;2023-11-21T08:40:10;100323.00;;;12.50
13570;BMP180;6856;51.460;7.158;2023-11-21T08:42:49;100326.00;;;12.50
13570;BMP180;6856;51.460;7.158;2023-11-21T08:45:25;100318.00;;;12.50
13570;BMP180;6856;51.460;7.158;2023-11-21T08:47:59;100330.00;;;12.50
13570;BMP180;6856;51.460;7.158;2023-11-21T08:50:36;100335.00;;;12.50
13570;BMP180;6856;51.460;7.158;2023-11-21T08:53:09;100321.00;;;12.50
13570;BMP180;6856;51.460;7.158;2023-11-21T08:55:44;100335.00;;;12.50
13570;BMP180;6856;51.460;7.158;2023-11-21T08:58:18;100335.00;;;12.50
13570;BMP180;6856;51.460;7.158;2023-11-21T09:00:51;100332.00;;;12.60
13570;BMP180;6856;51.460;7.158;2023-11-21T09:03:25;100337.00;;;12.60
13570;BMP180;6856;51.460;7.158;2023-11-21T09:06:02;100332.00;;;12.60
13570;BMP180;6856;51.460;7.158;2023-11-21T09:08:36;100340.00;;;12.70
13570;BMP180;6856;51.460;7.158;2023-11-21T09:11:10;100341.00;;;12.70
13570;BMP180;6856;51.460;7.158;2023-11-21T09:13:44;100344.00;;;12.70
13570;BMP180;6856;51.460;7.158;2023-11-21T09:16:21;100351.00;;;12.70
13570;BMP180;6856;51.460;7.158;2023-11-21T09:18:55;100362.00;;;12.70
13570;BMP180;6856;51.460;7.158;2023-11-21T09:21:34;100363.00;;;12.80
13570;BMP180;6856;51.460;7.158;2023-11-21T09:24:09;100357.00;;;12.80
13570;BMP180;6856;51.460;7.158;2023-11-21T09:26:42;100361.00;;;12.80
13570;BMP180;6856;51.460;7.158;2023-11-21T09:29:18;100362.00;;;12.80
13570;BMP180;6856;51.460;7.158;2023-11-21T09:31:52;100368.00;;;12.80
13570;BMP180;6856;51.460;7.158;2023-11-21T09:34:27;100356.00;;;12.80
13570;BMP180;6856;51.460;7.158;2023-11-21T09:37:03;100375.00;;;12.90
13570;BMP180;6856;51.460;7.158;2023-11-21T09:39:38;100392.00;;;12.90
13570;BMP180;6856;51.460;7.158;2023-11-21T09:42:19;100382.00;;;12.90
13570;BMP180;6856;51.460;7.158;2023-11-21T09:45:03;100395.00;;;12.90
13570;BMP180;6856;51.460;7.158;2023-11-21T09:47:39;100387.00;;;12.90
13570;BMP180;6856;51.460;7.158;2023-11-21T09:50:17;100390.00;;;13.00
13570;BMP180;6856;51.460;7.158;2023-11-21T09:53:05;100391.00;;;13.00
13570;BMP180;6856;51.460;7.158;2023-11-21T09:55:49;100394.00;;;13.00
13570;BMP180;6856;51.460;7.158;2023-11-21T09:58:23;100391.00;;;13.00
13570;BMP180;6856;51.460;7.158;2023-11-21T10:01:01;100390.00;;;13.00
13570;BMP180;6856;51.460;7.158;2023-11-21T10:03:35;100399.00;;;13.00
13570;BMP180;6856;51.460;7.158;2023-11-21T10:06:13;100381.00;;;13.10
13570;BMP180;6856;51.460;7.158;2023-11-21T10:08:50;100399.00;;;13.10
13570;BMP180;6856;51.460;7.158;2023-11-21T10:11:28;100402.00;;;13.10
13570;BMP180;6856;51.460;7.158;2023-11-21T10:14:04;100404.00;;;13.10
13570;BMP180;6856;51.460;7.158;2023-11-21T10:16:41;100402.00;;;13.10
13570;BMP180;6856;51.460;7.158;2023-11-21T10:19:15;100410.00;;;13.20
13570;BMP180;6856;51.460;7.158;2023-11-21T10:21:51;100407.00;;;13.20
13570;BMP180;6856;51.460;7.158;2023-11-21T10:24:26;100414.00;;;13.20
13570;BMP180;6856;51.460;7.158;2023-11-21T10:27:12;100417.00;;;13.20
13570;BMP180;6856;51.460;7.158;2023-11-21T10:29:51;100407.00;;;13.20
13570;BMP180;6856;51.460;7.158;2023-11-21T10:32:28;100399.00;;;13.30
13570;BMP180;6856;51.460;7.158;2023-11-21T10:35:05;100401.00;;;13.30
13570;BMP180;6856;51.460;7.158;2023-11-21T10:37:42;100408.00;;;13.30
13570;BMP180;6856;51.460;7.158;2023-11-21T10:40:17;100416.00;;;13.30
13570;BMP180;6856;51.460;7.158;2023-11-21T10:42:51;100419.00;;;13.30
13570;BMP180;6856;51.460;7.158;2023-11-21T10:45:26;100422.00;;;13.40
13570;BMP180;6856;51.460;7.158;2023-11-21T10:48:01;100412.00;;;13.40
13570;BMP180;6856;51.460;7.158;2023-11-21T10:50:38;100428.00;;;13.40
13570;BMP180;6856;51.460;7.158;2023-11-21T10:53:12;100427.00;;;13.50
13570;BMP180;6856;51.460;7.158;2023-11-21T10:55:49;100425.00;;;13.50
13570;BMP180;6856;51.460;7.158;2023-11-21T10:58:23;100435.00;;;13.60
13570;BMP180;6856;51.460;7.158;2023-11-21T11:00:57;100432.00;;;13.60
13570;BMP180;6856;51.460;7.158;2023-11-21T11:03:31;100438.00;;;13.60
13570;BMP180;6856;51.460;7.158;2023-11-21T11:06:07;100443.00;;;13.60
13570;BMP180;6856;51.460;7.158;2023-11-21T11:08:44;100439.00;;;13.70
13570;BMP180;6856;51.460;7.158;2023-11-21T11:11:19;100444.00;;;13.70
13570;BMP180;6856;51.460;7.158;2023-11-21T11:13:54;100451.00;;;13.70
13570;BMP180;6856;51.460;7.158;2023-11-21T11:16:29;100448.00;;;13.70
13570;BMP180;6856;51.460;7.158;2023-11-21T11:19:03;100452.00;;;13.70
13570;BMP180;6856;51.460;7.158;2023-11-21T11:21:53;100458.00;;;13.80
13570;BMP180;6856;51.460;7.158;2023-11-21T11:24:53;100453.00;;;13.80
13570;BMP180;6856;51.460;7.158;2023-11-21T11:27:48;100432.00;;;13.80
13570;BMP180;6856;51.460;7.158;2023-11-21T11:30:46;100450.00;;;13.80
13570;BMP180;6856;51.460;7.158;2023-11-21T11:33:32;100451.00;;;13.80
13570;BMP180;6856;51.460;7.158;2023-11-21T11:36:18;100446.00;;;13.80
13570;BMP180;6856;51.460;7.158;2023-11-21T11:38:54;100450.00;;;13.90
13570;BMP180;6856;51.460;7.158;2023-11-21T11:41:31;100452.00;;;13.90
13570;BMP180;6856;51.460;7.158;2023-11-21T11:44:48;100452.00;;;13.90
13570;BMP180;6856;51.460;7.158;2023-11-21T11:47:27;100443.00;;;14.00
13570;BMP180;6856;51.460;7.158;2023-11-21T11:50:08;100451.00;;;14.00
13570;BMP180;6856;51.460;7.158;2023-11-21T11:52:47;100446.00;;;14.00
13570;BMP180;6856;51.460;7.158;2023-11-21T11:55:24;100444.00;;;14.00
13570;BMP180;6856;51.460;7.158;2023-11-21T11:58:06;100450.00;;;14.10
13570;BMP180;6856;51.460;7.158;2023-11-21T12:00:42;100454.00;;;14.10
13570;BMP180;6856;51.460;7.158;2023-11-21T12:03:19;100454.00;;;14.10
13570;BMP180;6856;51.460;7.158;2023-11-21T12:05:53;100464.00;;;14.10
13570;BMP180;6856;51.460;7.158;2023-11-21T12:08:31;100463.00;;;14.20
13570;BMP180;6856;51.460;7.158;2023-11-21T12:11:05;100472.00;;;14.20
13570;BMP180;6856;51.460;7.158;2023-11-21T12:13:39;100476.00;;;14.20
13570;BMP180;6856;51.460;7.158;2023-11-21T12:16:14;100482.00;;;14.20
13570;BMP180;6856;51.460;7.158;2023-11-21T12:18:48;100481.00;;;14.10
13570;BMP180;6856;51.460;7.158;2023-11-21T12:21:22;100480.00;;;14.20
13570;BMP180;6856;51.460;7.158;2023-11-21T12:23:56;100482.00;;;14.20
13570;BMP180;6856;51.460;7.158;2023-11-21T12:26:30;100482.00;;;14.20
13570;BMP180;6856;51.460;7.158;2023-11-21T12:29:04;100489.00;;;14.20
13570;BMP180;6856;51.460;7.158;2023-11-21T12:31:41;100487.00;;;14.20
13570;BMP180;6856;51.460;7.158;2023-11-21T12:34:15;100494.00;;;14.20
13570;BMP180;6856;51.460;7.158;2023-11-21T12:36:50;100487.00;;;14.20
13570;BMP180;6856;51.460;7.158;2023-11-21T12:39:27;100491.00;;;14.20
13570;BMP180;6856;51.460;7.158;2023-11-21T12:42:03;100497.00;;;14.20
13570;BMP180;6856;51.460;7.158;2023-11-21T12:44:39;100498.00;;;14.20
13570;BMP180;6856;51.460;7.158;2023-11-21T12:47:19;100493.00;;;14.20
13570;BMP180;6856;51.460;7.158;2023-11-21T12:49:53;100501.00;;;14.30
13570;BMP180;6856;51.460;7.158;2023-11-21T12:52:27;100515.00;;;14.30
13570;BMP180;6856;51.460;7.158;2023-11-21T12:55:04;100518.00;;;14.30
13570;BMP180;6856;51.460;7.158;2023-11-21T12:57:42;100515.00;;;14.10
13570;BMP180;6856;51.460;7.158;2023-11-21T13:00:17;100528.00;;;14.30
13570;BMP180;6856;51.460;7.158;2023-11-21T13:03:01;100524.00;;;14.30
13570;BMP180;6856;51.460;7.158;2023-11-21T13:05:37;100527.00;;;14.30
13570;BMP180;6856;51.460;7.158;2023-11-21T13:08:13;100528.00;;;14.30
13570;BMP180;6856;51.460;7.158;2023-11-21T13:10:52;100533.00;;;14.30
13570;BMP180;6856;51.460;7.158;2023-11-21T13:13:29;100536.00;;;14.30
13570;BMP180;6856;51.460;7.158;2023-11-21T13:16:05;100542.00;;;14.20
13570;BMP180;6856;51.460;7.158;2023-11-21T13:18:41;100545.00;;;14.20
13570;BMP180;6856;51.460;7.158;2023-11-21T13:21:16;100543.00;;;14.20
13570;BMP180;6856;51.460;7.158;2023-11-21T13:23:50;100547.00;;;14.20
13570;BMP180;6856;51.460;7.158;2023-11-21T13:26:25;100553.00;;;14.20
13570;BMP180;6856;51.460;7.158;2023-11-21T13:28:59;100561.00;;;14.20
13570;BMP180;6856;51.460;7.158;2023-11-21T13:31:35;100564.00;;;14.20
13570;BMP180;6856;51.460;7.158;2023-11-21T13:34:11;100570.00;;;14.20
13570;BMP180;6856;51.460;7.158;2023-11-21T13:36:52;100566.00;;;14.20
13570;BMP180;6856;51.460;7.158;2023-11-21T13:39:32;100572.00;;;14.20
13570;BMP180;6856;51.460;7.158;2023-11-21T13:42:05;100571.00;;;14.20
13570;BMP180;6856;51.460;7.158;2023-11-21T13:44:39;100543.00;;;14.20
13570;BMP180;6856;51.460;7.158;2023-11-21T13:47:16;100576.00;;;14.10
13570;BMP180;6856;51.460;7.158;2023-11-21T13:49:51;100573.00;;;14.10
13570;BMP180;6856;51.460;7.158;2023-11-21T13:52:25;100579.00;;;14.10
13570;BMP180;6856;51.460;7.158;2023-11-21T13:55:00;100581.00;;;14.10
13570;BMP180;6856;51.460;7.158;2023-11-21T13:57:38;100582.00;;;14.00
13570;BMP180;6856;51.460;7.158;2023-11-21T14:00:13;100573.00;;;14.00
13570;BMP180;6856;51.460;7.158;2023-11-21T14:03:09;100580.00;;;14.00
13570;BMP180;6856;51.460;7.158;2023-11-21T14:05:51;100574.00;;;14.00
13570;BMP180;6856;51.460;7.158;2023-11-21T14:08:25;100586.00;;;14.00
13570;BMP180;6856;51.460;7.158;2023-11-21T14:11:00;100589.00;;;14.00
13570;BMP180;6856;51.460;7.158;2023-11-21T14:13:34;100601.00;;;14.00
13570;BMP180;6856;51.460;7.158;2023-11-21T14:16:11;100599.00;;;14.00
13570;BMP180;6856;51.460;7.158;2023-11-21T14:18:46;100603.00;;;14.00
13570;BMP180;6856;51.460;7.158;2023-11-21T14:21:29;100601.00;;;14.00
13570;BMP180;6856;51.460;7.158;2023-11-21T14:24:05;100603.00;;;14.00
13570;BMP180;6856;51.460;7.158;2023-11-21T14:26:42;100608.00;;;13.90
13570;BMP180;6856;51.460;7.158;2023-11-21T14:29:19;100611.00;;;13.90
13570;BMP180;6856;51.460;7.158;2023-11-21T14:31:54;100619.00;;;13.90
13570;BMP180;6856;51.460;7.158;2023-11-21T14:34:31;100623.00;;;13.90
13570;BMP180;6856;51.460;7.158;2023-11-21T14:37:06;100626.00;;;13.90
13570;BMP180;6856;51.460;7.158;2023-11-21T14:39:39;100622.00;;;13.80
13570;BMP180;6856;51.460;7.158;2023-11-21T14:42:17;100627.00;;;13.80
13570;BMP180;6856;51.460;7.158;2023-11-21T14:44:56;100631.00;;;13.80
13570;BMP180;6856;51.460;7.158;2023-11-21T14:47:35;100616.00;;;13.80
13570;BMP180;6856;51.460;7.158;2023-11-21T14:50:10;100637.00;;;13.80
13570;BMP180;6856;51.460;7.158;2023-11-21T14:53:13;100643.00;;;13.80
13570;BMP180;6856;51.460;7.158;2023-11-21T14:55:46;100657.00;;;13.70
13570;BMP180;6856;51.460;7.158;2023-11-21T14:58:30;100664.00;;;13.70
13570;BMP180;6856;51.460;7.158;2023-11-21T15:01:04;100671.00;;;13.70